Time;durP1;ratioP1;P1;durP2;ratioP2;P2;SDS_P1;SDS_P2;PMS_P1;PMS_P2;Temp;Humidity;BMP_temperature;BMP_pressure;BME280_temperature;BME280_humidity;BME280_pressure;Samples;Min_cycle;Max_cycle;Signal;HPM_P1;HPM_P2
2023/07/03 00:00:15;;;;;;;0.10;0.10;;;14.10;99.90;;;;;;5082181;28;20185;-86
2023/07/03 00:02:42;;;;;;;0.10;0.10;;;14.10;99.90;;;;;;5059550;28;21164;-87
2023/07/03 00:05:09;;;;;;;0.10;0.10;;;14.10;99.90;;;;;;5102275;28;20434;-93
2023/07/03 00:07:36;;;;;;;0.10;0.10;;;14.10;99.90;;;;;;5087596;28;20439;-89
2023/07/03 00:10:04;;;;;;;0.10;0.10;;;14.10;99.90;;;;;;5067804;28;20562;-90
2023/07/03 00:12:29;;;;;;;0.20;0.20;;;14.10;99.90;;;;;;5064880;28;21152;-94
2023/07/03 00:14:55;;;;;;;0.20;0.20;;;14.10;99.90;;;;;;5069147;28;20458;-88
2023/07/03 00:17:20;;;;;;;0.10;0.10;;;14.10;99.90;;;;;;5083576;28;20181;-84
2023/07/03 00:19:46;;;;;;;0.10;0.10;;;14.10;99.90;;;;;;5090495;28;20189;-85
2023/07/03 00:22:12;;;;;;;0.10;0.10;;;14.20;99.90;;;;;;5088522;28;20182;-86
2023/07/03 00:24:37;;;;;;;0.10;0.10;;;14.20;99.90;;;;;;5063145;28;20549;-87
2023/07/03 00:27:03;;;;;;;0.10;0.10;;;14.20;99.90;;;;;;5067746;28;20530;-84
2023/07/03 00:29:31;;;;;;;0.20;0.20;;;14.30;99.90;;;;;;5092400;28;20262;-88
2023/07/03 00:31:57;;;;;;;0.10;0.10;;;14.30;99.90;;;;;;5072144;28;20181;-94
2023/07/03 00:34:23;;;;;;;0.10;0.10;;;14.30;99.90;;;;;;5089076;28;20443;-88
2023/07/03 00:36:48;;;;;;;0.10;0.10;;;14.30;99.90;;;;;;5090429;28;20553;-93
2023/07/03 00:39:14;;;;;;;0.20;0.20;;;14.20;99.90;;;;;;5088821;28;20475;-93
2023/07/03 00:41:40;;;;;;;0.10;0.10;;;14.30;99.90;;;;;;5090090;28;20633;-88
2023/07/03 00:44:11;;;;;;;0.10;0.10;;;14.20;99.90;;;;;;5070168;28;20258;-90
2023/07/03 00:46:39;;;;;;;0.10;0.10;;;14.10;99.90;;;;;;5099404;28;20571;-94
2023/07/03 00:49:04;;;;;;;0.10;0.10;;;14.10;99.90;;;;;;5086130;28;20477;-89
2023/07/03 00:51:30;;;;;;;0.10;0.10;;;14.00;99.90;;;;;;5091600;28;20427;-93
2023/07/03 00:53:56;;;;;;;0.10;0.10;;;13.90;99.90;;;;;;5093195;28;20222;-87
2023/07/03 00:56:22;;;;;;;0.10;0.10;;;13.90;99.90;;;;;;5089186;28;20435;-91
2023/07/03 00:58:48;;;;;;;0.10;0.10;;;13.80;99.90;;;;;;5079258;28;20193;-88
2023/07/03 01:01:27;;;;;;;0.10;0.10;;;13.80;99.90;;;;;;5083979;28;20438;-89
2023/07/03 01:04:08;;;;;;;0.10;0.10;;;13.70;99.90;;;;;;5080485;28;20806;-93
2023/07/03 01:06:46;;;;;;;0.10;0.10;;;13.70;99.90;;;;;;5087449;28;20448;-91
2023/07/03 01:09:13;;;;;;;0.10;0.10;;;13.70;99.90;;;;;;5081317;28;20481;-94
2023/07/03 01:11:39;;;;;;;0.10;0.10;;;13.70;99.90;;;;;;5089705;28;20465;-90
2023/07/03 01:14:07;;;;;;;0.20;0.20;;;13.60;99.90;;;;;;5088704;28;20450;-92
2023/07/03 01:16:34;;;;;;;0.20;0.20;;;13.60;99.90;;;;;;5082277;28;20494;-89
2023/07/03 01:19:00;;;;;;;0.10;0.10;;;13.60;99.90;;;;;;5077849;28;21016;-88
2023/07/03 01:21:52;;;;;;;0.10;0.10;;;13.60;99.90;;;;;;5088721;28;20484;-90
2023/07/03 01:24:47;;;;;;;0.10;0.10;;;13.60;99.90;;;;;;5080548;28;20454;-91
2023/07/03 01:27:17;;;;;;;0.10;0.10;;;13.50;99.90;;;;;;5055211;28;20958;-88
2023/07/03 01:29:45;;;;;;;0.10;0.10;;;13.60;99.90;;;;;;5069270;28;20485;-86
2023/07/03 01:32:13;;;;;;;0.10;0.10;;;13.50;99.90;;;;;;5081950;28;20439;-95
2023/07/03 01:34:45;;;;;;;0.10;0.10;;;13.50;99.90;;;;;;5093198;28;20879;-92
2023/07/03 01:37:12;;;;;;;0.10;0.10;;;13.40;99.90;;;;;;5092187;28;20504;-89
2023/07/03 01:39:38;;;;;;;0.10;0.10;;;13.30;99.90;;;;;;5069116;28;20482;-92
2023/07/03 01:42:07;;;;;;;0.10;0.10;;;13.30;99.90;;;;;;5066511;28;20448;-86
2023/07/03 01:44:32;;;;;;;0.10;0.10;;;13.40;99.90;;;;;;5084288;28;20447;-96
2023/07/03 01:47:10;;;;;;;0.10;0.10;;;13.30;99.90;;;;;;5099651;28;20950;-90
2023/07/03 01:49:36;;;;;;;0.10;0.10;;;13.20;99.90;;;;;;5072691;28;20237;-91
2023/07/03 01:52:11;;;;;;;0.10;0.10;;;13.20;99.90;;;;;;5075435;28;20452;-92
2023/07/03 01:55:02;;;;;;;0.10;0.10;;;13.20;99.90;;;;;;5089684;28;20622;-89
2023/07/03 01:57:46;;;;;;;0.10;0.10;;;13.20;99.90;;;;;;5082329;28;20451;-89
2023/07/03 02:00:21;;;;;;;0.10;0.10;;;13.20;99.90;;;;;;5082378;28;20455;-91
2023/07/03 02:02:50;;;;;;;0.10;0.10;;;13.20;99.90;;;;;;5077432;28;20803;-96
2023/07/03 02:05:22;;;;;;;0.10;0.10;;;13.10;99.90;;;;;;5096804;28;20423;-92
2023/07/03 02:07:52;;;;;;;0.20;0.20;;;13.20;99.90;;;;;;5093079;28;20514;-87
2023/07/03 02:10:17;;;;;;;0.10;0.10;;;13.20;99.90;;;;;;5085441;28;20488;-91
2023/07/03 02:12:47;;;;;;;0.10;0.10;;;13.20;99.90;;;;;;5073819;28;20778;-88
2023/07/03 02:15:14;;;;;;;0.10;0.10;;;13.30;99.90;;;;;;5088574;28;20177;-87
2023/07/03 02:17:40;;;;;;;0.10;0.10;;;13.30;99.90;;;;;;5089022;28;20446;-84
2023/07/03 02:20:10;;;;;;;0.10;0.10;;;13.40;99.90;;;;;;5077404;28;21083;-85
2023/07/03 02:22:36;;;;;;;0.10;0.10;;;13.40;99.90;;;;;;5095141;28;20545;-90
2023/07/03 02:25:01;;;;;;;0.10;0.10;;;13.50;99.90;;;;;;5094626;28;20567;-82
2023/07/03 02:27:27;;;;;;;0.20;0.20;;;13.50;99.90;;;;;;5091776;28;20809;-82
2023/07/03 02:29:52;;;;;;;0.10;0.10;;;13.60;99.90;;;;;;5087185;28;20764;-84
2023/07/03 02:32:18;;;;;;;0.10;0.10;;;13.60;99.90;;;;;;5090763;28;20189;-84
2023/07/03 02:34:43;;;;;;;0.10;0.10;;;13.60;99.90;;;;;;5093434;28;20946;-92
2023/07/03 02:37:09;;;;;;;0.20;0.20;;;13.60;99.90;;;;;;5094070;28;20184;-86
2023/07/03 02:39:35;;;;;;;0.10;0.10;;;13.60;99.90;;;;;;5101919;28;20228;-86
2023/07/03 02:42:00;;;;;;;0.10;0.10;;;13.60;99.90;;;;;;5101255;28;20518;-96
2023/07/03 02:44:26;;;;;;;0.10;0.10;;;13.60;99.90;;;;;;5078325;28;20241;-94
2023/07/03 02:46:51;;;;;;;0.10;0.10;;;13.60;99.90;;;;;;5091061;28;20689;-89
2023/07/03 02:49:17;;;;;;;0.10;0.10;;;13.60;99.90;;;;;;5092277;28;20292;-88
2023/07/03 02:51:42;;;;;;;0.10;0.10;;;13.60;99.90;;;;;;5092597;28;20177;-88
2023/07/03 02:54:09;;;;;;;0.10;0.10;;;13.60;99.90;;;;;;5082101;28;20190;-91
2023/07/03 02:56:36;;;;;;;0.20;0.20;;;13.50;99.90;;;;;;5072640;28;20223;-87
2023/07/03 02:59:01;;;;;;;0.10;0.10;;;13.50;99.90;;;;;;5090344;28;20438;-88
2023/07/03 03:01:28;;;;;;;0.10;0.10;;;13.50;99.90;;;;;;5071630;28;20443;-87
2023/07/03 03:03:55;;;;;;;0.10;0.10;;;13.40;99.90;;;;;;5071108;28;20298;-89
2023/07/03 03:06:20;;;;;;;0.10;0.10;;;13.40;99.90;;;;;;5097245;28;20473;-92
2023/07/03 03:08:46;;;;;;;0.20;0.20;;;13.30;99.90;;;;;;5086992;28;20513;-87
2023/07/03 03:11:11;;;;;;;0.10;0.10;;;13.30;99.90;;;;;;5095382;28;20189;-94
2023/07/03 03:13:37;;;;;;;0.10;0.10;;;13.20;99.90;;;;;;5092424;28;20177;-87
2023/07/03 03:16:03;;;;;;;0.10;0.10;;;13.20;99.90;;;;;;5102306;28;20200;-93
2023/07/03 03:18:28;;;;;;;0.10;0.10;;;13.20;99.90;;;;;;5116145;28;20191;-84
2023/07/03 03:20:54;;;;;;;0.10;0.10;;;13.10;99.90;;;;;;5076918;28;20272;-87
2023/07/03 03:23:20;;;;;;;0.10;0.10;;;13.10;99.90;;;;;;5112122;28;20204;-88
2023/07/03 03:25:46;;;;;;;0.10;0.10;;;13.10;99.90;;;;;;5104373;28;20225;-91
2023/07/03 03:28:11;;;;;;;0.10;0.10;;;13.00;99.90;;;;;;5072678;28;20176;-92
2023/07/03 03:30:38;;;;;;;0.17;0.17;;;12.90;99.90;;;;;;5091448;28;20469;-94
2023/07/03 03:33:03;;;;;;;0.10;0.10;;;12.80;99.90;;;;;;5095870;28;20189;-91
2023/07/03 03:35:29;;;;;;;0.20;0.20;;;12.90;99.90;;;;;;5076919;28;20974;-86
2023/07/03 03:37:54;;;;;;;0.10;0.10;;;12.80;99.90;;;;;;5089334;28;20655;-89
2023/07/03 03:40:20;;;;;;;0.10;0.10;;;12.80;99.90;;;;;;5087858;28;20181;-93
2023/07/03 03:42:45;;;;;;;0.20;0.20;;;12.80;99.90;;;;;;5091237;28;20637;-91
2023/07/03 03:45:11;;;;;;;0.10;0.10;;;12.80;99.90;;;;;;5114443;28;20177;-94
2023/07/03 03:47:36;;;;;;;0.20;0.20;;;12.80;99.90;;;;;;5091619;28;20208;-92
2023/07/03 03:50:02;;;;;;;0.10;0.10;;;12.90;99.90;;;;;;5071828;28;20229;-95
2023/07/03 03:52:28;;;;;;;0.10;0.10;;;12.90;99.90;;;;;;5090016;28;20177;-86
2023/07/03 03:54:54;;;;;;;0.10;0.10;;;12.90;99.90;;;;;;5089987;28;20451;-91
2023/07/03 03:57:19;;;;;;;0.20;0.20;;;12.90;99.90;;;;;;5089854;28;20181;-92
2023/07/03 03:59:45;;;;;;;0.10;0.10;;;13.10;99.90;;;;;;5093673;28;20552;-84
2023/07/03 04:02:12;;;;;;;0.10;0.10;;;13.10;99.90;;;;;;5095582;28;20212;-85
2023/07/03 04:04:37;;;;;;;0.10;0.10;;;13.10;99.90;;;;;;5112365;28;20188;-90
2023/07/03 04:07:03;;;;;;;0.10;0.10;;;13.10;99.90;;;;;;5101223;28;20460;-89
2023/07/03 04:09:29;;;;;;;0.10;0.10;;;13.10;99.90;;;;;;5068752;28;20291;-89
2023/07/03 04:11:55;;;;;;;0.10;0.10;;;13.20;99.90;;;;;;5072304;28;20182;-84
2023/07/03 04:14:20;;;;;;;0.10;0.10;;;13.20;99.90;;;;;;5092032;28;20989;-93
2023/07/03 04:16:46;;;;;;;0.10;0.10;;;13.20;99.90;;;;;;5088676;28;20535;-92
2023/07/03 04:19:12;;;;;;;0.10;0.10;;;13.30;99.90;;;;;;5089387;28;20193;-82
2023/07/03 04:21:39;;;;;;;0.10;0.10;;;13.40;99.90;;;;;;5066802;28;21060;-89
2023/07/03 04:24:05;;;;;;;0.10;0.10;;;13.40;99.90;;;;;;5085811;28;20247;-86
2023/07/03 04:26:31;;;;;;;0.10;0.10;;;13.50;99.90;;;;;;5094977;28;20430;-92
2023/07/03 04:28:58;;;;;;;0.10;0.10;;;13.60;99.90;;;;;;5079791;28;20485;-83
2023/07/03 04:31:23;;;;;;;0.10;0.10;;;13.60;99.90;;;;;;5099710;28;20871;-87
2023/07/03 04:33:49;;;;;;;0.10;0.10;;;13.60;99.90;;;;;;5094979;28;20522;-83
2023/07/03 04:36:18;;;;;;;0.10;0.10;;;13.70;99.90;;;;;;5072534;28;20185;-90
2023/07/03 04:38:44;;;;;;;0.10;0.10;;;13.70;99.90;;;;;;5092031;28;20663;-90
2023/07/03 04:41:09;;;;;;;0.10;0.10;;;13.70;99.90;;;;;;5094525;28;20440;-91
2023/07/03 04:43:35;;;;;;;0.10;0.10;;;13.60;99.90;;;;;;5088805;28;20192;-89
2023/07/03 04:46:03;;;;;;;0.10;0.10;;;13.60;99.90;;;;;;5067735;28;20228;-90
2023/07/03 04:48:30;;;;;;;0.10;0.10;;;13.60;99.90;;;;;;5094051;28;20611;-95
2023/07/03 04:50:56;;;;;;;0.20;0.20;;;13.70;99.90;;;;;;5091447;28;21198;-93
2023/07/03 04:53:23;;;;;;;0.10;0.10;;;13.70;99.90;;;;;;5070601;28;20424;-87
2023/07/03 04:55:49;;;;;;;0.10;0.10;;;13.70;99.90;;;;;;5088340;28;20447;-92
2023/07/03 04:58:15;;;;;;;0.10;0.10;;;13.80;99.90;;;;;;5088954;28;20454;-87
2023/07/03 05:00:40;;;;;;;0.10;0.10;;;13.90;99.90;;;;;;5087724;28;20436;-96
2023/07/03 05:03:07;;;;;;;0.10;0.10;;;13.90;99.90;;;;;;5075910;28;20197;-93
2023/07/03 05:05:33;;;;;;;0.10;0.10;;;13.90;99.90;;;;;;5090634;28;20181;-94
2023/07/03 05:07:58;;;;;;;0.10;0.10;;;14.00;99.90;;;;;;5085178;28;20922;-93
2023/07/03 05:10:24;;;;;;;0.10;0.10;;;14.00;99.90;;;;;;5086374;28;20913;-94
2023/07/03 05:12:50;;;;;;;0.10;0.10;;;14.10;99.90;;;;;;5083879;28;20178;-91
2023/07/03 05:15:17;;;;;;;0.10;0.10;;;14.10;99.90;;;;;;5082665;28;20181;-90
2023/07/03 05:17:48;;;;;;;0.10;0.10;;;14.10;99.90;;;;;;5097977;28;20533;-87
2023/07/03 05:20:15;;;;;;;0.10;0.10;;;14.00;99.90;;;;;;5093784;28;20445;-88
2023/07/03 05:22:43;;;;;;;0.10;0.10;;;13.90;99.90;;;;;;5088298;28;20443;-88
2023/07/03 05:25:11;;;;;;;0.10;0.10;;;13.80;99.90;;;;;;5082786;28;20439;-85
2023/07/03 05:27:38;;;;;;;0.10;0.10;;;13.70;99.90;;;;;;5086334;28;21093;-86
2023/07/03 05:30:05;;;;;;;0.10;0.10;;;13.60;99.90;;;;;;5068264;28;20474;-87
2023/07/03 05:32:31;;;;;;;0.10;0.10;;;13.70;99.90;;;;;;5109301;28;20414;-86
2023/07/03 05:34:56;;;;;;;0.10;0.10;;;13.90;99.90;;;;;;5084192;28;20516;-87
2023/07/03 05:37:22;;;;;;;0.10;0.10;;;14.00;99.90;;;;;;5090577;28;20934;-88
2023/07/03 05:39:49;;;;;;;0.10;0.10;;;14.10;99.90;;;;;;5087321;28;20229;-88
2023/07/03 05:42:18;;;;;;;0.10;0.10;;;14.20;99.90;;;;;;5086540;28;20174;-88
2023/07/03 05:44:44;;;;;;;0.10;0.10;;;14.10;99.90;;;;;;5085822;28;21091;-82
2023/07/03 05:47:11;;;;;;;0.10;0.10;;;14.10;99.90;;;;;;5088031;28;20534;-83
2023/07/03 05:49:36;;;;;;;0.10;0.10;;;14.10;99.90;;;;;;5074042;28;20471;-85
2023/07/03 05:52:02;;;;;;;0.10;0.10;;;14.10;99.90;;;;;;5087007;28;20439;-86
2023/07/03 05:54:27;;;;;;;0.10;0.10;;;14.10;99.90;;;;;;5098023;28;20185;-89
2023/07/03 05:57:05;;;;;;;0.10;0.10;;;14.10;99.90;;;;;;5077852;28;20188;-91
2023/07/03 05:59:33;;;;;;;0.10;0.10;;;14.10;99.90;;;;;;5091350;28;20185;-86
2023/07/03 06:01:58;;;;;;;0.10;0.10;;;14.10;99.90;;;;;;5078877;28;20470;-89
2023/07/03 06:04:25;;;;;;;0.10;0.10;;;14.10;99.90;;;;;;5109828;28;20440;-91
2023/07/03 06:06:57;;;;;;;0.10;0.10;;;14.10;99.90;;;;;;5103997;28;20184;-92
2023/07/03 06:09:24;;;;;;;0.10;0.10;;;14.10;99.90;;;;;;5066113;28;20566;-92
2023/07/03 06:11:50;;;;;;;0.10;0.10;;;14.20;99.90;;;;;;5084635;28;21246;-91
2023/07/03 06:14:17;;;;;;;0.10;0.10;;;14.30;99.90;;;;;;5090437;28;20489;-90
2023/07/03 06:16:44;;;;;;;0.10;0.10;;;14.20;99.90;;;;;;5100524;28;20173;-90
2023/07/03 06:19:11;;;;;;;0.10;0.10;;;14.30;99.90;;;;;;5083544;28;20435;-91
2023/07/03 06:21:37;;;;;;;0.10;0.10;;;14.50;99.90;;;;;;5080253;28;20491;-85
2023/07/03 06:24:04;;;;;;;0.10;0.10;;;14.50;99.90;;;;;;5097451;28;20447;-86
2023/07/03 06:26:29;;;;;;;0.10;0.10;;;14.60;99.90;;;;;;5090300;28;20440;-92
2023/07/03 06:28:55;;;;;;;0.10;0.10;;;14.80;99.90;;;;;;5076595;28;20466;-89
2023/07/03 06:31:22;;;;;;;0.10;0.10;;;14.90;99.90;;;;;;5081676;28;20251;-94
2023/07/03 06:33:48;;;;;;;0.10;0.10;;;15.10;99.90;;;;;;5088048;28;20208;-89
2023/07/03 06:36:20;;;;;;;0.10;0.10;;;15.30;99.90;;;;;;5111344;28;21071;-92
2023/07/03 06:38:52;;;;;;;0.10;0.10;;;15.30;99.90;;;;;;5075846;28;20261;-94
2023/07/03 06:41:19;;;;;;;0.10;0.10;;;15.40;99.90;;;;;;5081233;28;20442;-90
2023/07/03 06:43:44;;;;;;;0.10;0.10;;;15.40;99.90;;;;;;5090898;28;20515;-94
2023/07/03 06:46:12;;;;;;;0.10;0.10;;;15.50;99.90;;;;;;5090285;28;20541;-89
2023/07/03 06:48:38;;;;;;;0.10;0.10;;;15.60;99.90;;;;;;5097666;28;20230;-93
2023/07/03 06:51:05;;;;;;;0.10;0.10;;;15.70;99.90;;;;;;5092711;28;20528;-93
2023/07/03 06:53:31;;;;;;;0.10;0.10;;;15.80;99.90;;;;;;5088824;28;20173;-94
2023/07/03 06:55:58;;;;;;;0.10;0.10;;;15.70;99.90;;;;;;5081423;28;20450;-89
2023/07/03 06:58:25;;;;;;;0.10;0.10;;;15.90;99.90;;;;;;5073153;28;20737;-91
2023/07/03 07:00:51;;;;;;;0.20;0.10;;;15.80;99.90;;;;;;5071437;28;20444;-91
2023/07/03 07:03:24;;;;;;;0.10;0.10;;;15.90;99.90;;;;;;5096529;28;20431;-88
2023/07/03 07:05:54;;;;;;;0.10;0.10;;;16.00;99.90;;;;;;5070937;28;20533;-92
2023/07/03 07:08:20;;;;;;;0.10;0.10;;;16.10;99.90;;;;;;5090861;28;20436;-93
2023/07/03 07:10:45;;;;;;;0.10;0.10;;;16.30;99.90;;;;;;5074665;28;20812;-93
2023/07/03 07:13:12;;;;;;;0.10;0.10;;;16.30;99.90;;;;;;5095619;28;20207;-87
2023/07/03 07:15:40;;;;;;;0.10;0.10;;;16.30;99.90;;;;;;5089663;28;20447;-94
2023/07/03 07:18:08;;;;;;;0.10;0.10;;;16.50;99.90;;;;;;5080451;28;20429;-95
2023/07/03 07:20:40;;;;;;;0.10;0.10;;;16.60;99.90;;;;;;5091415;28;20542;-95
2023/07/03 07:23:09;;;;;;;0.10;0.10;;;16.70;99.90;;;;;;5090199;28;20456;-91
2023/07/03 07:25:35;;;;;;;0.10;0.10;;;16.70;99.90;;;;;;5088748;28;20447;-91
2023/07/03 07:28:01;;;;;;;0.10;0.10;;;17.00;99.90;;;;;;5093644;28;20433;-90
2023/07/03 07:30:26;;;;;;;0.10;0.10;;;17.20;99.90;;;;;;5088254;28;20479;-90
2023/07/03 07:32:52;;;;;;;0.10;0.10;;;17.10;99.90;;;;;;5092628;28;20449;-96
2023/07/03 07:35:18;;;;;;;0.10;0.10;;;17.30;99.90;;;;;;5100303;28;20227;-89
2023/07/03 07:37:44;;;;;;;0.10;0.10;;;17.10;99.90;;;;;;5089853;28;20204;-94
2023/07/03 07:40:10;;;;;;;0.10;0.10;;;17.30;99.90;;;;;;5092658;28;21042;-89
2023/07/03 07:42:36;;;;;;;0.10;0.10;;;17.40;99.90;;;;;;5104468;28;20165;-92
2023/07/03 07:45:03;;;;;;;0.10;0.10;;;17.30;99.90;;;;;;5090471;28;20443;-89
2023/07/03 07:47:29;;;;;;;0.10;0.10;;;17.60;99.90;;;;;;5095208;28;20457;-91
2023/07/03 07:49:55;;;;;;;0.10;0.10;;;17.70;99.90;;;;;;5093134;28;20993;-90
2023/07/03 07:52:20;;;;;;;0.10;0.10;;;17.80;99.90;;;;;;5090316;28;20474;-91
2023/07/03 07:54:46;;;;;;;0.10;0.10;;;18.00;99.90;;;;;;5092730;28;20189;-93
2023/07/03 07:57:11;;;;;;;0.10;0.10;;;17.80;99.90;;;;;;5091628;28;20251;-92
2023/07/03 07:59:37;;;;;;;0.10;0.10;;;17.90;99.90;;;;;;5089937;28;20602;-89
2023/07/03 08:02:03;;;;;;;0.10;0.10;;;17.80;99.90;;;;;;5092235;28;20739;-91
2023/07/03 08:04:28;;;;;;;0.10;0.10;;;17.70;99.90;;;;;;5092306;28;20196;-89
2023/07/03 08:06:54;;;;;;;0.10;0.10;;;18.00;99.90;;;;;;5091224;28;20258;-95
2023/07/03 08:09:22;;;;;;;0.10;0.10;;;17.80;99.90;;;;;;5067909;28;20279;-93
2023/07/03 08:11:49;;;;;;;0.10;0.10;;;17.30;99.90;;;;;;5073868;28;20772;-92
2023/07/03 08:14:14;;;;;;;0.10;0.10;;;17.40;99.90;;;;;;5093057;28;20429;-89
2023/07/03 08:16:40;;;;;;;0.10;0.10;;;17.50;99.90;;;;;;5073450;28;20185;-88
2023/07/03 08:19:05;;;;;;;0.10;0.10;;;17.80;99.90;;;;;;5071186;28;20193;-90
2023/07/03 08:21:31;;;;;;;0.10;0.10;;;17.70;99.90;;;;;;5089427;28;20184;-88
2023/07/03 08:23:57;;;;;;;0.10;0.10;;;17.40;99.90;;;;;;5093262;28;20203;-92
2023/07/03 08:26:23;;;;;;;0.10;0.10;;;17.70;99.90;;;;;;5092246;28;20169;-95
2023/07/03 08:28:49;;;;;;;0.10;0.10;;;18.00;99.90;;;;;;5075443;28;20342;-95
2023/07/03 08:31:15;;;;;;;0.10;0.10;;;18.40;99.90;;;;;;5091373;28;20454;-91
2023/07/03 08:33:40;;;;;;;0.10;0.10;;;18.60;99.90;;;;;;5086003;28;20216;-96
2023/07/03 08:36:06;;;;;;;0.10;0.10;;;18.50;99.90;;;;;;5108050;28;20468;-95
2023/07/03 08:38:32;;;;;;;0.10;0.10;;;18.70;99.90;;;;;;5105665;28;20248;-90
2023/07/03 08:40:59;;;;;;;0.10;0.10;;;18.90;99.90;;;;;;5092187;28;21129;-95
2023/07/03 08:43:30;;;;;;;0.10;0.10;;;19.00;99.90;;;;;;5083347;28;20660;-86
2023/07/03 08:45:56;;;;;;;0.10;0.10;;;18.60;99.90;;;;;;5090549;28;20467;-94
2023/07/03 08:48:28;;;;;;;0.10;0.10;;;18.60;99.90;;;;;;5073513;28;20450;-93
2023/07/03 08:51:00;;;;;;;0.10;0.10;;;18.10;99.90;;;;;;5085003;28;20447;-95
2023/07/03 08:53:38;;;;;;;0.10;0.10;;;18.30;99.90;;;;;;5088819;28;20446;-96
2023/07/03 08:56:08;;;;;;;0.10;0.10;;;18.00;99.90;;;;;;5098954;28;20968;-94
2023/07/03 08:58:33;;;;;;;0.10;0.10;;;18.20;99.90;;;;;;5083666;28;20446;-95
2023/07/03 09:01:21;;;;;;;0.10;0.10;;;18.80;99.90;;;;;;5087364;28;20454;-93
2023/07/03 09:04:07;;;;;;;0.10;0.10;;;19.20;99.90;;;;;;5113130;28;20214;-95
2023/07/03 09:06:56;;;;;;;0.10;0.10;;;18.90;99.90;;;;;;5088503;28;20439;-93
2023/07/03 09:09:41;;;;;;;0.10;0.10;;;18.20;99.90;;;;;;5077648;28;20524;-91
2023/07/03 09:12:24;;;;;;;0.10;0.10;;;17.70;99.90;;;;;;5087922;28;20427;-93
2023/07/03 09:14:57;;;;;;;0.10;0.10;;;18.20;99.90;;;;;;5076960;28;20452;-96
2023/07/03 09:17:24;;;;;;;0.10;0.10;;;18.00;99.90;;;;;;5092306;28;20529;-93
2023/07/03 09:19:51;;;;;;;0.10;0.10;;;18.30;99.90;;;;;;5088171;28;20604;-95
2023/07/03 09:22:40;;;;;;;0.10;0.10;;;18.60;99.90;;;;;;5075751;28;20911;-95
2023/07/03 09:25:10;;;;;;;0.10;0.10;;;19.10;99.90;;;;;;5091804;28;20446;-93
2023/07/03 09:27:35;;;;;;;0.10;0.10;;;18.90;99.90;;;;;;5091753;28;20443;-96
2023/07/03 09:30:06;;;;;;;0.10;0.10;;;19.20;99.90;;;;;;5089007;28;20484;-96
2023/07/03 09:32:32;;;;;;;0.10;0.10;;;19.20;99.90;;;;;;5076210;28;20211;-96
2023/07/03 09:35:10;;;;;;;0.10;0.10;;;19.00;99.90;;;;;;5087416;28;20451;-92
2023/07/03 09:37:37;;;;;;;0.10;0.10;;;18.90;99.90;;;;;;5056287;28;20436;-93
2023/07/03 09:40:08;;;;;;;0.10;0.10;;;19.20;99.90;;;;;;5087229;28;20580;-93
2023/07/03 09:42:35;;;;;;;0.10;0.10;;;19.70;99.90;;;;;;5086256;28;20455;-94
2023/07/03 09:45:00;;;;;;;0.10;0.10;;;19.20;99.90;;;;;;5086292;28;20450;-91
2023/07/03 09:47:28;;;;;;;0.10;0.10;;;19.80;99.90;;;;;;5084666;28;20447;-90
2023/07/03 09:50:01;;;;;;;0.10;0.10;;;20.10;99.90;;;;;;5066403;28;20220;-85
2023/07/03 09:52:26;;;;;;;0.10;0.00;;;20.20;99.90;;;;;;5072462;28;20496;-94
2023/07/03 09:54:53;;;;;;;0.10;0.10;;;20.40;99.90;;;;;;5098269;28;20443;-96
2023/07/03 09:57:23;;;;;;;0.10;0.00;;;20.70;99.90;;;;;;5069187;28;20182;-90
2023/07/03 09:59:49;;;;;;;0.10;0.00;;;20.40;99.90;;;;;;5095386;28;20453;-87
2023/07/03 10:02:17;;;;;;;0.10;0.00;;;20.00;99.90;;;;;;5092989;28;20449;-92
2023/07/03 10:04:44;;;;;;;0.10;0.00;;;20.10;99.90;;;;;;5089382;28;20189;-87
2023/07/03 10:07:14;;;;;;;0.10;0.00;;;20.80;99.90;;;;;;5092156;28;20430;-93
2023/07/03 10:09:42;;;;;;;0.10;0.10;;;20.70;99.90;;;;;;5090518;28;20535;-92
2023/07/03 10:12:30;;;;;;;0.10;0.00;;;20.80;99.90;;;;;;5086976;28;20458;-96
2023/07/03 10:15:02;;;;;;;0.10;0.00;;;20.30;99.90;;;;;;5091311;28;20484;-95
2023/07/03 10:17:40;;;;;;;0.10;0.10;;;20.00;99.90;;;;;;5089930;28;20439;-92
2023/07/03 10:20:10;;;;;;;0.10;0.00;;;19.70;99.90;;;;;;5071105;28;20489;-91
2023/07/03 10:22:39;;;;;;;0.10;0.00;;;19.20;99.90;;;;;;5065400;28;20435;-83
2023/07/03 10:25:08;;;;;;;0.10;0.00;;;19.50;99.90;;;;;;5091510;28;20469;-87
2023/07/03 10:27:35;;;;;;;0.10;0.00;;;19.70;99.90;;;;;;5074175;28;20438;-96
2023/07/03 10:30:05;;;;;;;0.10;0.00;;;19.80;99.90;;;;;;5070795;28;20945;-90
2023/07/03 10:32:33;;;;;;;0.10;0.00;;;19.70;99.90;;;;;;5085578;28;20426;-88
2023/07/03 10:35:11;;;;;;;0.10;0.10;;;19.40;99.90;;;;;;5070828;28;20437;-95
2023/07/03 10:37:55;;;;;;;0.10;0.10;;;19.60;99.90;;;;;;5093210;28;20454;-95
2023/07/03 10:40:32;;;;;;;0.10;0.10;;;19.90;99.90;;;;;;5095043;28;20447;-89
2023/07/03 10:43:01;;;;;;;0.10;0.10;;;19.90;99.90;;;;;;5092553;28;20479;-96
2023/07/03 10:45:31;;;;;;;0.10;0.10;;;20.10;99.90;;;;;;5088748;28;20503;-90
2023/07/03 10:48:01;;;;;;;0.10;0.00;;;20.60;99.90;;;;;;5099253;28;20442;-91
2023/07/03 10:50:41;;;;;;;0.10;0.00;;;21.20;99.90;;;;;;5089878;28;20475;-90
2023/07/03 10:53:41;;;;;;;0.10;0.00;;;20.90;99.90;;;;;;5109632;28;20478;-87
2023/07/03 10:56:16;;;;;;;0.10;0.10;;;20.70;99.90;;;;;;5065155;28;20463;-93
2023/07/03 10:59:12;;;;;;;0.10;0.00;;;20.20;99.90;;;;;;5082335;28;20450;-94
2023/07/03 11:01:54;;;;;;;0.10;0.00;;;21.10;99.90;;;;;;5071871;28;20454;-88
2023/07/03 11:04:37;;;;;;;0.10;0.00;;;22.00;99.90;;;;;;5090566;28;20439;-91
2023/07/03 11:07:09;;;;;;;0.10;0.00;;;22.40;99.90;;;;;;5083489;28;20477;-89
2023/07/03 11:09:43;;;;;;;0.10;0.00;;;21.20;99.90;;;;;;5087790;28;20572;-93
2023/07/03 11:12:26;;;;;;;0.10;0.00;;;20.30;99.90;;;;;;5090367;28;20438;-87
2023/07/03 11:15:22;;;;;;;0.10;0.00;;;19.80;99.90;;;;;;5077838;28;20455;-89
2023/07/03 11:18:14;;;;;;;0.10;0.10;;;19.30;99.90;;;;;;5087392;28;20474;-89
2023/07/03 11:20:49;;;;;;;0.10;0.00;;;19.00;99.90;;;;;;5068276;28;20451;-93
2023/07/03 11:23:34;;;;;;;0.10;0.10;;;20.40;99.90;;;;;;5087499;28;21020;-93
2023/07/03 11:26:00;;;;;;;0.10;0.00;;;21.70;99.90;;;;;;5085253;28;20451;-95
2023/07/03 11:28:36;;;;;;;0.10;0.00;;;21.70;99.90;;;;;;5078032;28;20427;-89
2023/07/03 11:31:04;;;;;;;0.10;0.00;;;21.90;99.90;;;;;;5088889;28;20201;-95
2023/07/03 11:33:33;;;;;;;0.10;0.00;;;23.20;99.90;;;;;;5086307;28;20439;-94
2023/07/03 11:36:00;;;;;;;0.10;0.00;;;23.80;99.90;;;;;;5079130;28;20481;-95
2023/07/03 11:38:27;;;;;;;0.10;0.00;;;23.40;99.90;;;;;;5093550;28;20559;-94
2023/07/03 11:40:55;;;;;;;0.10;0.00;;;23.30;99.90;;;;;;5095454;28;20442;-96
2023/07/03 11:43:23;;;;;;;0.10;0.00;;;23.90;99.90;;;;;;5093081;28;20503;-93
2023/07/03 11:45:58;;;;;;;0.10;0.00;;;24.50;99.90;;;;;;5088012;28;20504;-91
2023/07/03 11:48:28;;;;;;;0.10;0.00;;;24.70;99.90;;;;;;5088836;28;20519;-86
2023/07/03 11:51:03;;;;;;;0.10;0.00;;;24.30;99.00;;;;;;5089289;28;20489;-91
2023/07/03 11:53:58;;;;;;;0.10;0.00;;;23.90;99.80;;;;;;5080881;28;20518;-91
2023/07/03 11:56:36;;;;;;;0.10;0.00;;;23.10;99.90;;;;;;5082397;28;20438;-94
2023/07/03 11:59:04;;;;;;;0.10;0.00;;;22.20;99.90;;;;;;5091084;28;20443;-94
2023/07/03 12:01:30;;;;;;;0.10;0.00;;;21.60;99.90;;;;;;5088665;28;20465;-93
2023/07/03 12:04:08;;;;;;;0.10;0.00;;;21.00;99.90;;;;;;5093012;28;20551;-92
2023/07/03 12:06:40;;;;;;;0.10;0.00;;;20.50;99.90;;;;;;5093719;28;20430;-84
2023/07/03 12:09:18;;;;;;;0.10;0.00;;;19.80;99.90;;;;;;5088164;28;20466;-87
2023/07/03 12:11:59;;;;;;;0.10;0.00;;;19.10;99.90;;;;;;5075011;28;20454;-88
2023/07/03 12:14:57;;;;;;;0.10;0.10;;;18.70;99.90;;;;;;5089915;28;20446;-89
2023/07/03 12:17:27;;;;;;;0.10;0.10;;;18.70;99.90;;;;;;5023299;28;20576;-87
2023/07/03 12:20:20;;;;;;;0.00;0.00;;;18.70;99.90;;;;;;5067702;28;20440;-88
2023/07/03 12:22:48;;;;;;;0.10;0.10;;;18.60;99.90;;;;;;5079625;28;20443;-83
2023/07/03 12:25:25;;;;;;;0.10;0.10;;;18.60;99.90;;;;;;5067027;28;20446;-89
2023/07/03 12:27:52;;;;;;;0.10;0.00;;;18.60;99.90;;;;;;5070284;28;20484;-84
2023/07/03 12:30:27;;;;;;;0.10;0.00;;;18.70;99.90;;;;;;5071518;28;20491;-87
2023/07/03 12:32:54;;;;;;;0.10;0.10;;;18.90;99.90;;;;;;5089432;28;20451;-89
2023/07/03 12:35:22;;;;;;;0.10;0.10;;;18.80;99.90;;;;;;5083476;28;20485;-87
2023/07/03 12:38:04;;;;;;;0.10;0.10;;;18.70;99.90;;;;;;5088340;28;20445;-92
2023/07/03 12:40:29;;;;;;;0.10;0.10;;;18.60;99.90;;;;;;5091797;28;20490;-88
2023/07/03 12:42:56;;;;;;;0.10;0.10;;;18.50;99.90;;;;;;5090595;28;20473;-88
2023/07/03 12:45:28;;;;;;;0.10;0.10;;;18.40;99.90;;;;;;5094248;28;20204;-84
2023/07/03 12:48:02;;;;;;;0.10;0.10;;;18.70;99.90;;;;;;5086473;28;20468;-88
2023/07/03 12:50:28;;;;;;;0.10;0.10;;;18.70;99.90;;;;;;5086568;28;20533;-92
2023/07/03 12:52:58;;;;;;;0.10;0.10;;;18.60;99.90;;;;;;5090523;28;20471;-90
2023/07/03 12:55:24;;;;;;;0.10;0.10;;;19.40;99.90;;;;;;5090057;28;20212;-92
2023/07/03 12:57:50;;;;;;;0.10;0.00;;;19.90;99.90;;;;;;5077205;28;20432;-91